Hwy 5 at Elkhorn Atmospheric Data: 11/28/2020 Summary  Detailed Graphs  Station List

  Temperature     Wind Precipitation Visibility
Timestamp Air Wet
Bulb
Dew-
point
24-hr
Max
24-hr
Min
Relative
Humidity
Atmospheric
Pressure
Avg
Speed
Avg
Dir
Spot
Speed
Spot
Dir
Max
Speed
Max
Dir
  Rate Situation Start End 1 hr 3 hr 6 hr 12 hr 24 hr   Situation
Date Time °F °F °F °F °F % in Hg mph ° mph ° mph ° Y/N in/hr text Date Time Date Time in in in in in mi text
11/28/2020 12:00 AM 38.66 36.50 33.62 61.88 37.04 82.0 Not Reported 3.36 N 3.36 N 3.36 N No 0.000 No Precipitation     0.000 0.000 0.000 0.000 0.000 1.18 Clear
11/28/2020 12:15 AM 38.48 36.32 33.44 61.88 37.04 82.0 Not Reported 3.80 N 3.36 N 3.80 N No 0.000 No Precipitation     0.000 0.000 0.000 0.000 0.000 1.22 Clear
11/28/2020 12:30 AM 38.30 35.96 32.90 61.88 37.04 81.0 Not Reported 4.03 N 3.36 NW 4.92 N No 0.000 No Precipitation     0.000 0.000 0.000 0.000 0.000 1.25 Clear
11/28/2020 12:45 AM 37.04 34.88 32.00 61.88 37.04 82.0 Not Reported 3.80 N 3.80 N 4.92 N No 0.000 No Precipitation     0.000 0.000 0.000 0.000 0.000 1.27 Clear
11/28/2020 01:00 AM 37.22 34.70 31.46 61.88 37.04 79.0 Not Reported 4.92 NW 4.47 NW 5.14 NW No 0.000 No Precipitation     0.000 0.000 0.000 0.000 0.000 1.18 Clear
11/28/2020 01:15 AM 37.04 34.52 31.28 61.88 37.04 79.0 Not Reported 4.25 N 4.70 NW 5.37 NW No 0.000 No Precipitation     0.000 0.000 0.000 0.000 0.000 0.93 Clear
11/28/2020 01:30 AM 36.14 33.62 30.02 61.88 37.04 78.0 Not Reported 6.26 NW 5.14 NW 6.49 NW No 0.000 No Precipitation     0.000 0.000 0.000 0.000 0.000 1.22 Clear
11/28/2020 01:45 AM 35.60 33.26 30.20 61.88 37.04 80.0 Not Reported 5.82 NW 6.04 NW 6.71 NW No 0.000 No Precipitation     0.000 0.000 0.000 0.000 0.000 1.20 Clear
11/28/2020 02:00 AM 36.50 34.70 32.00 61.88 37.04 84.0 Not Reported 7.16 NW 7.16 N 7.83 NW No 0.000 No Precipitation     0.000 0.000 0.000 0.000 0.000 1.32 Clear
11/28/2020 02:15 AM 35.78 33.98 31.46 61.88 37.04 84.0 Not Reported 5.59 NW 5.14 NW 8.72 NW No 0.000 No Precipitation     0.000 0.000 0.000 0.000 0.000 1.28 Clear
11/28/2020 02:30 AM 34.16 32.54 30.56 61.88 37.04 86.0 Not Reported 5.82 NW 5.37 NW 6.49 NW No 0.000 No Precipitation     0.000 0.000 0.000 0.000 0.000 0.44 Clear
11/28/2020 02:45 AM 33.62 32.00 29.66 61.88 37.04 85.0 Not Reported 5.14 NW 5.14 NW 6.71 NW No 0.000 No Precipitation     0.000 0.000 0.000 0.000 0.000 1.25 Clear
11/28/2020 03:00 AM 33.80 32.18 29.84 61.88 37.04 85.0 Not Reported 5.59 NW 5.82 NW 7.16 NW No 0.000 No Precipitation     0.000 0.000 0.000 0.000 0.000 1.27 Clear
11/28/2020 03:15 AM 33.62 32.00 29.48 61.88 37.04 84.0 Not Reported 6.71 NW 7.16 NW 6.49 N No 0.000 No Precipitation     0.000 0.000 0.000 0.000 0.000 1.20 Clear
11/28/2020 03:30 AM 34.52 32.36 29.30 61.88 37.04 81.0 Not Reported 9.40 NW 8.72 NW 9.17 NW No 0.000 No Precipitation     0.000 0.000 0.000 0.000 0.000 0.82 Clear
11/28/2020 03:45 AM 34.34 32.18 29.30 61.88 37.04 81.0 Not Reported 9.40 NW 7.83 N 10.51 NW No 0.000 No Precipitation     0.000 0.000 0.000 0.000 0.000 0.95 Clear
11/28/2020 04:00 AM 34.16 32.18 29.30 61.88 37.04 82.0 Not Reported 9.40 N 8.50 NW 10.29 NW No 0.000 No Precipitation     0.000 0.000 0.000 0.000 0.000 1.01 Clear
11/28/2020 04:15 AM 35.06 32.90 29.84 61.88 37.04 81.0 Not Reported 9.40 NW 10.07 NW 10.07 N No 0.000 No Precipitation     0.000 0.000 0.000 0.000 0.000 0.80 Clear
11/28/2020 04:30 AM 33.98 32.00 29.12 61.88 37.04 82.0 Not Reported 7.16 NW 6.93 N 9.84 N No 0.000 No Precipitation     0.000 0.000 0.000 0.000 0.000 0.92 Clear
11/28/2020 04:45 AM 34.34 32.36 29.48 61.88 37.04 82.0 Not Reported 7.61 NW 7.38 NW 8.05 NW No 0.000 No Precipitation     0.000 0.000 0.000 0.000 0.000 0.93 Clear
11/28/2020 05:00 AM 34.70 32.72 29.84 61.88 37.04 82.0 Not Reported 6.71 N 6.26 N 7.16 NW No 0.000 No Precipitation     0.000 0.000 0.000 0.000 0.000 0.91 Clear
11/28/2020 05:15 AM 34.16 32.36 29.84 61.88 37.04 84.0 Not Reported 6.04 N 6.04 N 7.38 NW No 0.000 No Precipitation     0.000 0.000 0.000 0.000 0.000 1.00 Clear
11/28/2020 05:30 AM 34.70 32.54 29.48 61.88 37.04 81.0 Not Reported 7.61 NW 6.26 NW 7.38 NW No 0.000 No Precipitation     0.000 0.000 0.000 0.000 0.000 0.97 Clear
11/28/2020 05:45 AM 34.16 32.18 29.30 61.88 37.04 82.0 Not Reported 7.16 NW 7.83 N 8.05 NW No 0.000 No Precipitation     0.000 0.000 0.000 0.000 0.000 1.01 Clear
11/28/2020 06:00 AM 34.70 32.72 29.84 61.88 37.04 82.0 Not Reported 7.38 NW 7.61 NW 8.72 NW No 0.000 No Precipitation     0.000 0.000 0.000 0.000 0.000 0.89 Clear
11/28/2020 06:15 AM 34.88 32.72 29.66 61.88 37.04 81.0 Not Reported 8.72 NW 9.17 NW 8.72 NW No 0.000 No Precipitation     0.000 0.000 0.000 0.000 0.000 0.80 Clear
11/28/2020 06:30 AM 35.24 32.90 29.84 61.88 37.04 80.0 Not Reported 9.17 NW 8.72 NW 10.29 NW No 0.000 No Precipitation     0.000 0.000 0.000 0.000 0.000 1.19 Clear
11/28/2020 06:45 AM 35.60 33.08 29.48 61.88 37.04 78.0 Not Reported 8.50 NW 8.50 NW 10.29 NW No 0.000 No Precipitation     0.000 0.000 0.000 0.000 0.000 1.08 Clear
11/28/2020 07:00 AM 35.42 32.90 29.30 61.88 37.04 78.0 Not Reported 9.62 NW 10.29 NW 9.40 NW No 0.000 No Precipitation     0.000 0.000 0.000 0.000 0.000 1.00 Clear
11/28/2020 07:15 AM 35.06 32.54 28.94 61.88 37.04 78.0 Not Reported 8.95 NW 8.72 NW 10.29 NW No 0.000 No Precipitation     0.000 0.000 0.000 0.000 0.000 0.97 Clear
11/28/2020 07:30 AM 35.06 32.54 28.94 61.88 37.04 78.0 Not Reported 6.49 NW 6.93 N 9.84 NW No 0.000 No Precipitation     0.000 0.000 0.000 0.000 0.000 1.06 Clear
11/28/2020 07:45 AM 36.14 33.62 30.02 61.88 37.04 78.0 Not Reported 6.26 N 5.82 N 7.61 N No 0.000 No Precipitation     0.000 0.000 0.000 0.000 0.000 1.16 Clear
11/28/2020 08:00 AM 37.94 34.88 30.74 61.88 37.04 75.0 Not Reported 4.92 N 5.82 N 5.59 N No 0.000 No Precipitation     0.000 0.000 0.000 0.000 0.000 1.18 Clear
11/28/2020 08:15 AM 39.20 35.96 31.64 61.88 37.04 74.0 Not Reported 4.70 N 4.25 N 6.26 N No 0.000 No Precipitation     0.000 0.000 0.000 0.000 0.000 1.19 Clear
11/28/2020 08:30 AM 41.72 37.94 32.90 61.88 37.04 71.0 Not Reported 4.03 N 5.37 N 6.04 NW No 0.000 No Precipitation     0.000 0.000 0.000 0.000 0.000 1.14 Clear
11/28/2020 08:45 AM 42.62 37.94 31.82 61.88 37.04 65.0 Not Reported 7.61 N 8.95 N 5.37 N No 0.000 No Precipitation     0.000 0.000 0.000 0.000 0.000 1.25 Clear
11/28/2020 09:00 AM 42.80 38.30 32.54 61.88 37.04 67.0 Not Reported 6.26 N 6.71 N 8.72 N No 0.000 No Precipitation     0.000 0.000 0.000 0.000 0.000 1.17 Clear
11/28/2020 09:15 AM 43.88 38.84 32.36 61.88 37.04 64.0 Not Reported 8.95 N 7.61 NW 8.05 N No 0.000 No Precipitation     0.000 0.000 0.000 0.000 0.000 1.15 Clear
11/28/2020 09:30 AM 44.78 39.74 33.26 61.88 37.04 64.0 Not Reported 8.05 NW 7.61 NW 8.95 NW No 0.000 No Precipitation     0.000 0.000 0.000 0.000 0.000 1.24 Clear
11/28/2020 09:45 AM 46.22 40.82 34.16 61.88 37.04 63.0 Not Reported 4.92 N 5.14 NW 8.50 NW No 0.000 No Precipitation     0.000 0.000 0.000 0.000 0.000 1.21 Clear
11/28/2020 10:00 AM 48.38 42.26 35.06 61.88 37.04 60.0 Not Reported 3.80 N 2.68 N 6.71 N No 0.000 No Precipitation     0.000 0.000 0.000 0.000 0.000 1.33 Clear
11/28/2020 10:15 AM 49.10 42.62 34.88 61.88 37.04 58.0 Not Reported 6.04 N 5.14 NE 5.37 N No 0.000 No Precipitation     0.000 0.000 0.000 0.000 0.000 1.28 Clear
11/28/2020 10:30 AM 50.90 43.52 34.70 61.88 37.04 54.0 Not Reported 5.37 N 2.91 N 6.26 N No 0.000 No Precipitation     0.000 0.000 0.000 0.000 0.000 1.36 Clear
11/28/2020 10:45 AM 52.70 44.42 35.06 61.88 37.04 51.0 Not Reported 3.58 N 3.13 NW 6.71 N No 0.000 No Precipitation     0.000 0.000 0.000 0.000 0.000 1.38 Clear
11/28/2020 11:00 AM 53.42 44.60 34.70 61.88 37.04 49.0 Not Reported 4.70 NW 7.38 NW 5.82 N No 0.000 No Precipitation     0.000 0.000 0.000 0.000 0.000 1.30 Clear
11/28/2020 11:15 AM 54.14 45.32 35.42 61.88 37.04 49.0 Not Reported 5.37 N 5.59 NW 7.38 NW No 0.000 No Precipitation     0.000 0.000 0.000 0.000 0.000 1.29 Clear
11/28/2020 11:30 AM 55.40 45.68 34.88 61.88 37.04 46.0 Not Reported 7.16 NW 4.47 N 8.05 NW No 0.000 No Precipitation     0.000 0.000 0.000 0.000 0.000 1.25 Clear
11/28/2020 11:45 AM 55.94 45.68 34.34 61.88 37.04 44.0 Not Reported 7.83 N 6.49 NW 9.62 NW No 0.000 No Precipitation     0.000 0.000 0.000 0.000 0.000 1.16 Clear
11/28/2020 12:00 PM 57.38 46.76 35.06 61.88 37.04 43.0 Not Reported 6.49 N 6.71 N 9.17 N No 0.000 No Precipitation     0.000 0.000 0.000 0.000 0.000 1.30 Clear
11/28/2020 12:15 PM 57.74 46.40 33.44 61.88 37.04 40.0 Not Reported 7.61 NW 8.72 NW 8.95 N No 0.000 No Precipitation     0.000 0.000 0.000 0.000 0.000 1.20 Clear
11/28/2020 12:30 PM 58.64 46.94 33.62 61.88 37.04 39.0 Not Reported 6.49 N 6.26 N 11.18 NW No 0.000 No Precipitation     0.000 0.000 0.000 0.000 0.000 1.13 Clear
11/28/2020 12:45 PM 59.90 47.66 34.16 61.88 37.04 38.0 Not Reported 7.16 N 6.93 N 10.74 N No 0.000 No Precipitation     0.000 0.000 0.000 0.000 0.000 1.24 Clear
11/28/2020 01:00 PM 60.08 47.66 34.34 61.88 37.04 38.0 Not Reported 7.16 N 8.05 N 9.62 N No 0.000 No Precipitation     0.000 0.000 0.000 0.000 0.000 1.11 Clear
11/28/2020 01:15 PM 60.26 47.48 33.08 61.88 37.04 36.0 Not Reported 9.17 NW 7.38 N 9.40 NW No 0.000 No Precipitation     0.000 0.000 0.000 0.000 0.000 1.37 Clear
11/28/2020 01:30 PM 61.16 47.48 32.00 61.88 37.04 33.0 Not Reported 7.16 NW 8.28 NW 10.51 N No 0.000 No Precipitation     0.000 0.000 0.000 0.000 0.000 1.31 Clear
11/28/2020 01:45 PM 61.52 48.02 32.90 61.88 37.04 34.0 Not Reported 7.38 NW 8.05 NW 9.40 N No 0.000 No Precipitation     0.000 0.000 0.000 0.000 0.000 1.32 Clear
11/28/2020 02:00 PM 62.06 48.38 33.26 61.88 37.04 34.0 Not Reported 4.92 NW 8.95 NW 9.84 NW No 0.000 No Precipitation     0.000 0.000 0.000 0.000 0.000 1.36 Clear
11/28/2020 02:15 PM 62.42 48.38 32.90 61.88 37.04 33.0 Not Reported 8.72 N 7.61 NW 10.29 N No 0.000 No Precipitation     0.000 0.000 0.000 0.000 0.000 1.32 Clear
11/28/2020 02:30 PM 62.60 48.56 33.08 61.88 37.04 33.0 Not Reported 7.83 N 8.50 NW 10.07 NW No 0.000 No Precipitation     0.000 0.000 0.000 0.000 0.000 1.35 Clear
11/28/2020 02:45 PM 62.24 48.56 33.44 61.88 37.04 34.0 Not Reported 8.72 N 6.49 NW 9.84 N No 0.000 No Precipitation     0.000 0.000 0.000 0.000 0.000 1.35 Clear
11/28/2020 03:00 PM 62.96 48.74 33.44 61.88 37.04 33.0 Not Reported 6.26 N 7.16 N 10.29 NW No 0.000 No Precipitation     0.000 0.000 0.000 0.000 0.000 1.37 Clear
11/28/2020 03:15 PM 62.60 48.56 33.08 61.88 37.04 33.0 Not Reported 8.50 N 4.92 N 9.84 N No 0.000 No Precipitation     0.000 0.000 0.000 0.000 0.000 1.34 Clear
11/28/2020 03:30 PM 62.60 48.56 33.08 61.88 37.04 33.0 Not Reported 6.71 NW 5.82 N 9.17 N No 0.000 No Precipitation     0.000 0.000 0.000 0.000 0.000 1.33 Clear
11/28/2020 03:45 PM 62.96 49.10 34.16 61.88 37.04 34.0 Not Reported 4.03 N 3.13 NE 8.50 N No 0.000 No Precipitation     0.000 0.000 0.000 0.000 0.000 1.44 Clear
11/28/2020 04:00 PM 62.24 48.74 34.16 61.88 37.04 35.0 Not Reported 3.58 N 3.13 N 5.37 N No 0.000 No Precipitation     0.000 0.000 0.000 0.000 0.000 1.47 Clear
11/28/2020 04:15 PM 61.16 48.20 33.98 61.88 37.04 36.0 Not Reported 3.36 NE 2.68 N 6.04 N No 0.000 No Precipitation     0.000 0.000 0.000 0.000 0.000 1.48 Clear
11/28/2020 04:30 PM 59.72 47.30 33.26 61.88 37.04 37.0 Not Reported 2.24 N 2.68 N 4.25 N No 0.000 No Precipitation     0.000 0.000 0.000 0.000 0.000 1.53 Clear
11/28/2020 04:45 PM 58.10 46.58 33.80 61.88 37.04 40.0 Not Reported 2.46 NE 3.13 NE 3.13 N No 0.000 No Precipitation     0.000 0.000 0.000 0.000 0.000 1.49 Clear
11/28/2020 05:00 PM 57.56 46.40 33.98 61.88 37.04 41.0 Not Reported 2.01 NE 2.46 NE 3.36 E No 0.000 No Precipitation     0.000 0.000 0.000 0.000 0.000 1.49 Clear
11/28/2020 05:15 PM 57.02 46.22 34.16 61.88 37.04 42.0 Not Reported 2.46 NE 2.46 NE 3.13 NE No 0.000 No Precipitation     0.000 0.000 0.000 0.000 0.000 1.49 Clear
11/28/2020 05:30 PM 55.94 45.50 33.62 63.14 33.44 43.0 Not Reported 2.91 NE 2.91 NE 3.80 N No 0.000 No Precipitation     0.000 0.000 0.000 0.000 0.000 1.46 Clear
11/28/2020 05:45 PM 55.76 45.50 33.62 63.14 33.44 43.0 Not Reported 2.68 NE 2.68 N 3.36 NE No 0.000 No Precipitation     0.000 0.000 0.000 0.000 0.000 1.48 Clear
11/28/2020 06:00 PM 55.58 45.50 33.98 63.14 33.44 44.0 Not Reported 1.79 NE 1.79 E 3.13 NE No 0.000 No Precipitation     0.000 0.000 0.000 0.000 0.000 1.40 Clear
11/28/2020 06:15 PM 54.68 44.96 33.62 63.14 33.44 45.0 Not Reported 0.45 SW 0.89 SW 2.46 E No 0.000 No Precipitation     0.000 0.000 0.000 0.000 0.000 1.28 Clear
11/28/2020 06:30 PM 53.06 44.42 34.34 63.14 33.44 49.0 Not Reported 0.45 W 0.00 W 1.57 SW No 0.000 No Precipitation     0.000 0.000 0.000 0.000 0.000 1.27 Clear
11/28/2020 06:45 PM 52.70 44.24 34.52 63.14 33.44 50.0 Not Reported 2.68 SW 3.36 W 2.91 SW No 0.000 No Precipitation     0.000 0.000 0.000 0.000 0.000 1.29 Clear
11/28/2020 07:00 PM 51.62 43.88 35.06 63.14 33.44 53.0 Not Reported 0.22 E 0.00 NE 4.25 W No 0.000 No Precipitation     0.000 0.000 0.000 0.000 0.000 1.32 Clear
11/28/2020 07:15 PM 51.08 43.34 34.52 63.14 33.44 53.0 Not Reported 2.68 W 0.45 SW 2.68 W No 0.000 No Precipitation     0.000 0.000 0.000 0.000 0.000 1.37 Clear
11/28/2020 07:30 PM 49.82 42.98 35.06 63.14 33.44 57.0 Not Reported 1.34 NW 0.00 NE 2.68 NW No 0.000 No Precipitation     0.000 0.000 0.000 0.000 0.000 1.36 Clear
11/28/2020 07:45 PM 50.36 43.52 35.60 63.14 33.44 57.0 Not Reported 2.46 W 1.57 W 2.24 W No 0.000 No Precipitation     0.000 0.000 0.000 0.000 0.000 1.38 Clear
11/28/2020 08:00 PM 48.38 42.62 35.96 63.14 33.44 62.0 Not Reported 0.89 SW 1.57 S 4.25 W No 0.000 No Precipitation     0.000 0.000 0.000 0.000 0.000 1.35 Clear
11/28/2020 08:15 PM 48.20 42.44 35.78 63.14 33.44 62.0 Not Reported 1.34 SW 2.24 W 1.79 SW No 0.000 No Precipitation     0.000 0.000 0.000 0.000 0.000 1.36 Clear
11/28/2020 08:30 PM 46.94 41.54 35.24 63.14 33.44 64.0 Not Reported 0.67 SW 1.34 SW 2.46 W No 0.000 No Precipitation     0.000 0.000 0.000 0.000 0.000 1.36 Clear
11/28/2020 08:45 PM 46.58 41.72 36.14 63.14 33.44 67.0 Not Reported 0.89 SW 2.24 W 2.68 W No 0.000 No Precipitation     0.000 0.000 0.000 0.000 0.000 1.31 Clear
11/28/2020 09:00 PM 45.68 41.00 35.60 63.14 33.44 68.0 Not Reported 1.79 S 1.79 S 2.01 SW No 0.000 No Precipitation     0.000 0.000 0.000 0.000 0.000 1.28 Clear
11/28/2020 09:15 PM 44.96 40.82 36.14 63.14 33.44 71.0 Not Reported 2.01 SW 1.79 SW 2.68 SW No 0.000 No Precipitation     0.000 0.000 0.000 0.000 0.000 1.30 Clear
11/28/2020 09:30 PM 44.42 40.46 35.96 63.14 33.44 72.0 Not Reported 2.68 SW 2.46 SW 3.58 SW No 0.000 No Precipitation     0.000 0.000 0.000 0.000 0.000 1.33 Clear
11/28/2020 09:45 PM 44.96 39.92 33.44 63.14 33.44 64.0 Not Reported 1.79 SW 0.45 E 3.36 SW No 0.000 No Precipitation     0.000 0.000 0.000 0.000 0.000 1.32 Clear
11/28/2020 10:00 PM 42.26 39.20 35.42 63.14 33.44 77.0 Not Reported 1.12 SE 1.57 SE 2.24 SW No 0.000 No Precipitation     0.000 0.000 0.000 0.000 0.000 1.36 Clear
11/28/2020 10:15 PM 39.74 37.04 33.62 63.14 33.44 79.0 Not Reported 4.92 SE 4.47 SE 4.70 E No 0.000 No Precipitation     0.000 0.000 0.000 0.000 0.000 1.35 Clear
11/28/2020 10:30 PM 43.16 39.56 35.06 63.14 33.44 73.0 Not Reported 1.57 SE 1.79 SE 4.47 SE No 0.000 No Precipitation     0.000 0.000 0.000 0.000 0.000 1.36 Clear
11/28/2020 10:45 PM 42.98 39.38 34.88 63.14 33.44 73.0 Not Reported 2.46 SE 2.01 SE 3.58 SE No 0.000 No Precipitation     0.000 0.000 0.000 0.000 0.000 1.34 Clear
11/28/2020 11:00 PM 41.36 38.30 34.70 63.14 33.44 77.0 Not Reported 3.13 SE 2.91 SE 2.68 SE No 0.000 No Precipitation     0.000 0.000 0.000 0.000 0.000 1.36 Clear
11/28/2020 11:15 PM 42.08 38.84 35.06 63.14 33.44 76.0 Not Reported 2.01 SE 2.46 SE 3.36 SE No 0.000 No Precipitation     0.000 0.000 0.000 0.000 0.000 1.37 Clear
11/28/2020 11:30 PM 41.18 37.94 33.80 63.14 33.44 75.0 Not Reported 1.34 E 1.34 E 2.24 SE No 0.000 No Precipitation     0.000 0.000 0.000 0.000 0.000 1.35 Clear
11/28/2020 11:45 PM 42.08 38.66 34.34 63.14 33.44 74.0 Not Reported 3.80 E 0.00 E 2.01 E No 0.000 No Precipitation     0.000 0.000 0.000 0.000 0.000 1.36 Clear